Time;durP1;ratioP1;P1;durP2;ratioP2;P2;SDS_P1;SDS_P2;PMS_P1;PMS_P2;Temp;Humidity;BMP_temperature;BMP_pressure;BME280_temperature;BME280_humidity;BME280_pressure;Samples;Min_cycle;Max_cycle;Signal;HPM_P1;HPM_P2
2021/01/28 00:01:03;;;;;;;18.30;12.82;;;;;;;3.62;100.00;100331.19;5052860;28;20171;-68
2021/01/28 00:03:47;;;;;;;21.60;12.43;;;;;;;3.62;100.00;100320.63;5038749;28;20465;-69
2021/01/28 00:06:31;;;;;;;21.10;12.70;;;;;;;3.66;100.00;100325.63;5053742;28;20091;-68
2021/01/28 00:09:15;;;;;;;19.92;12.80;;;;;;;3.69;100.00;100330.72;5053333;28;20044;-68
2021/01/28 00:11:59;;;;;;;20.13;13.30;;;;;;;3.66;100.00;100324.78;5052351;28;20098;-70
2021/01/28 00:14:43;;;;;;;20.02;13.60;;;;;;;3.71;100.00;100326.19;5052316;28;20102;-70
2021/01/28 00:17:27;;;;;;;18.98;12.30;;;;;;;3.75;100.00;100318.91;5052447;28;20106;-69
2021/01/28 00:20:21;;;;;;;21.08;12.52;;;;;;;3.75;100.00;100316.28;5052229;28;20468;-70
2021/01/28 00:23:07;;;;;;;20.17;12.52;;;;;;;3.78;100.00;100316.94;5038325;28;20095;-70
2021/01/28 00:25:51;;;;;;;17.92;11.43;;;;;;;3.76;100.00;100324.06;5052343;28;20054;-70
2021/01/28 00:28:35;;;;;;;22.55;12.57;;;;;;;3.75;100.00;100313.66;5037965;28;20410;-69
2021/01/28 00:31:19;;;;;;;18.45;13.48;;;;;;;3.76;100.00;100310.06;5053046;28;20075;-70
2021/01/28 00:34:03;;;;;;;17.30;12.60;;;;;;;3.81;100.00;100292.13;5053270;28;20059;-69
2021/01/28 00:36:47;;;;;;;19.63;13.18;;;;;;;3.82;100.00;100296.44;5052139;28;20043;-68
2021/01/28 00:39:30;;;;;;;;;;;;;;;3.80;100.00;100282.53;5053249;28;20043;-69
2021/01/28 00:42:15;;;;;;;20.27;11.65;;;;;;;3.79;100.00;100273.78;5052124;28;19920;-68
2021/01/28 00:44:59;;;;;;;18.70;12.48;;;;;;;3.78;100.00;100271.25;5037770;28;20082;-68
2021/01/28 00:47:43;;;;;;;22.38;14.35;;;;;;;3.78;100.00;100252.78;5052688;28;20106;-69
2021/01/28 00:50:29;;;;;;;18.13;11.95;;;;;;;3.83;100.00;100258.59;5052750;28;20098;-69
2021/01/28 00:53:15;;;;;;;19.25;12.52;;;;;;;3.81;100.00;100255.22;5051875;28;20094;-69
2021/01/28 00:55:59;;;;;;;21.70;12.23;;;;;;;3.85;100.00;100259.34;5052085;28;20048;-68
2021/01/28 00:58:42;;;;;;;;;;;;;;;3.84;100.00;100249.75;5053142;28;20048;-68
2021/01/28 01:01:27;;;;;;;17.30;11.57;;;;;;;3.83;100.00;100253.31;5052615;28;20284;-69
2021/01/28 01:04:10;;;;;;;17.50;11.73;;;;;;;3.85;100.00;100240.91;5052814;28;20043;-69
2021/01/28 01:06:57;;;;;;;18.08;11.77;;;;;;;3.88;100.00;100252.06;5052610;28;20401;-67
2021/01/28 01:09:40;;;;;;;17.02;11.00;;;;;;;3.92;100.00;100247.44;5037620;28;20060;-68
2021/01/28 01:12:25;;;;;;;14.63;8.13;;;;;;;3.94;100.00;100245.56;5052604;28;20114;-68
2021/01/28 01:15:10;;;;;;;15.85;10.40;;;;;;;3.94;100.00;100246.38;5052497;28;20099;-69
2021/01/28 01:17:54;;;;;;;15.43;10.20;;;;;;;3.99;100.00;100254.00;5051290;28;20095;-69
2021/01/28 01:20:38;;;;;;;13.82;8.75;;;;;;;4.02;100.00;100249.34;5052458;28;20067;-69
2021/01/28 01:23:22;;;;;;;18.52;10.93;;;;;;;4.02;100.00;100248.50;5037234;28;20056;-69
2021/01/28 01:26:06;;;;;;;15.52;9.63;;;;;;;3.99;100.00;100243.44;5052608;28;20095;-69
2021/01/28 01:28:50;;;;;;;15.27;10.00;;;;;;;4.06;100.00;100242.09;5066219;22;20058;-67
2021/01/28 01:31:34;;;;;;;14.65;9.07;;;;;;;4.07;100.00;100246.41;5032124;28;20417;-67
2021/01/28 01:34:19;;;;;;;12.35;8.20;;;;;;;4.06;100.00;100236.81;5031601;28;20087;-67
2021/01/28 01:37:03;;;;;;;13.88;9.77;;;;;;;4.06;100.00;100223.63;5031306;28;20156;-67
2021/01/28 01:39:48;;;;;;;15.30;10.32;;;;;;;4.07;100.00;100214.75;5031278;28;20144;-66
2021/01/28 01:42:32;;;;;;;13.65;9.52;;;;;;;4.10;100.00;100215.41;5031462;28;20057;-68
2021/01/28 01:45:25;;;;;;;13.32;9.30;;;;;;;4.11;100.00;100195.97;5031396;28;20061;-67
2021/01/28 01:48:17;;;;;;;13.13;9.32;;;;;;;4.07;100.00;100197.13;5031273;28;20091;-67
2021/01/28 01:51:14;;;;;;;14.10;9.23;;;;;;;4.10;100.00;100198.72;5034487;28;20095;-67
2021/01/28 01:54:04;;;;;;;13.32;8.77;;;;;;;4.12;100.00;100199.44;5035188;28;20079;-67
2021/01/28 01:56:52;;;;;;;13.70;9.15;;;;;;;4.14;100.00;100193.13;5035280;28;20116;-67
2021/01/28 01:59:43;;;;;;;14.23;9.98;;;;;;;4.09;100.00;100184.69;5035173;28;20136;-68
2021/01/28 02:02:31;;;;;;;13.82;9.18;;;;;;;4.12;100.00;100183.63;5035194;28;20099;-67
2021/01/28 02:05:19;;;;;;;13.60;8.90;;;;;;;4.13;100.00;100180.03;5035169;28;20175;-67
2021/01/28 02:08:04;;;;;;;15.40;9.02;;;;;;;4.15;100.00;100176.34;5036064;28;20090;-67
2021/01/28 02:10:48;;;;;;;12.25;8.25;;;;;;;4.18;100.00;100167.38;5034750;28;20095;-67
2021/01/28 02:13:32;;;;;;;11.65;8.45;;;;;;;4.20;100.00;100161.03;5034958;28;20072;-67
2021/01/28 02:16:18;;;;;;;14.38;8.40;;;;;;;4.22;100.00;100161.78;5035794;28;20186;-67
2021/01/28 02:19:06;;;;;;;12.95;8.93;;;;;;;4.23;100.00;100152.06;5020885;28;20080;-67
2021/01/28 02:21:50;;;;;;;16.38;9.55;;;;;;;4.24;100.00;100143.19;5034671;28;20362;-67
2021/01/28 02:24:44;;;;;;;11.40;8.35;;;;;;;4.24;100.00;100148.47;5034928;28;20044;-67
2021/01/28 02:27:29;;;;;;;10.85;7.65;;;;;;;4.24;100.00;100137.91;5035833;28;20060;-67
2021/01/28 02:30:20;;;;;;;11.30;7.88;;;;;;;4.20;100.00;100141.72;5035379;28;20080;-67
2021/01/28 02:33:06;;;;;;;10.25;7.20;;;;;;;4.24;100.00;100138.75;5034711;28;20053;-67
2021/01/28 02:35:50;;;;;;;11.15;8.02;;;;;;;4.21;100.00;100127.56;5034695;28;20048;-68
2021/01/28 02:38:34;;;;;;;12.60;7.80;;;;;;;4.22;100.00;100129.25;5034693;28;20044;-67
2021/01/28 02:41:18;;;;;;;12.07;7.82;;;;;;;4.23;100.00;100121.25;5035837;28;20106;-67
2021/01/28 02:44:03;;;;;;;11.85;7.40;;;;;;;4.23;100.00;100118.59;5020531;28;20048;-67
2021/01/28 02:46:48;;;;;;;11.52;7.75;;;;;;;4.20;100.00;100112.69;5035296;28;20064;-68
2021/01/28 02:49:31;;;;;;;10.65;7.38;;;;;;;4.25;100.00;100105.31;5034261;28;20057;-68
2021/01/28 02:52:16;;;;;;;9.23;6.32;;;;;;;4.24;100.00;100111.53;5034392;28;20096;-68
2021/01/28 02:55:00;;;;;;;9.73;6.90;;;;;;;4.24;100.00;100095.69;5034318;28;20507;-67
2021/01/28 02:57:44;;;;;;;9.23;6.25;;;;;;;4.23;100.00;100088.72;5035342;28;20132;-68
2021/01/28 03:00:34;;;;;;;11.68;7.00;;;;;;;4.22;100.00;100090.53;5019619;28;20053;-67
2021/01/28 03:03:18;;;;;;;10.52;6.95;;;;;;;4.23;100.00;100080.81;5033958;28;20064;-67
2021/01/28 03:06:04;;;;;;;9.98;6.30;;;;;;;4.20;100.00;100083.69;5035143;28;20060;-67
2021/01/28 03:08:48;;;;;;;10.93;7.40;;;;;;;4.24;100.00;100082.50;5034950;28;20104;-67
2021/01/28 03:11:33;;;;;;;12.40;7.05;;;;;;;4.24;100.00;100064.88;5034710;28;20048;-67
2021/01/28 03:14:17;;;;;;;8.18;6.18;;;;;;;4.25;100.00;100068.38;5034791;28;20140;-68
2021/01/28 03:17:04;;;;;;;9.65;7.05;;;;;;;4.25;100.00;100057.81;5034236;28;20543;-67
2021/01/28 03:19:48;;;;;;;9.50;6.32;;;;;;;4.26;100.00;100060.34;5034823;28;20052;-67
2021/01/28 03:22:31;;;;;;;9.48;6.25;;;;;;;4.30;100.00;100047.78;5033892;28;20497;-67
2021/01/28 03:25:17;;;;;;;11.15;7.25;;;;;;;4.29;100.00;100043.44;5033894;28;20088;-67
2021/01/28 03:28:02;;;;;;;9.27;6.53;;;;;;;4.34;100.00;100028.09;5033640;28;20052;-67
2021/01/28 03:30:47;;;;;;;8.77;6.03;;;;;;;4.33;100.00;100013.22;5033364;28;20130;-67
2021/01/28 03:33:31;;;;;;;9.93;6.78;;;;;;;4.35;100.00;100014.81;5034642;28;20049;-67
2021/01/28 03:36:15;;;;;;;9.20;6.55;;;;;;;4.36;100.00;100002.47;5034673;28;20080;-68
2021/01/28 03:38:59;;;;;;;8.82;6.50;;;;;;;4.36;100.00;100011.22;5033187;28;20049;-67
2021/01/28 03:41:43;;;;;;;11.98;7.10;;;;;;;4.36;100.00;100005.13;5033451;28;20099;-67
2021/01/28 03:44:27;;;;;;;9.05;6.15;;;;;;;4.36;100.00;99999.84;5033527;28;20072;-67
2021/01/28 03:47:11;;;;;;;7.20;5.07;;;;;;;4.39;100.00;99983.78;5034265;28;20083;-67
2021/01/28 03:49:55;;;;;;;9.55;6.05;;;;;;;4.38;100.00;99979.44;5033225;28;20044;-67
2021/01/28 03:52:39;;;;;;;11.45;6.55;;;;;;;4.37;100.00;99969.84;5033097;28;20052;-67
2021/01/28 03:55:23;;;;;;;12.65;7.75;;;;;;;4.37;100.00;99967.22;5033170;28;20072;-68
2021/01/28 03:58:08;;;;;;;10.82;7.30;;;;;;;4.34;100.00;99954.22;5034005;28;20486;-67
2021/01/28 04:00:51;;;;;;;12.48;7.43;;;;;;;4.33;100.00;99952.53;5033914;28;20091;-68
2021/01/28 04:03:35;;;;;;;12.38;8.70;;;;;;;4.36;100.00;99947.06;5034146;28;20048;-68
2021/01/28 04:06:20;;;;;;;11.63;7.68;;;;;;;4.37;100.00;99933.72;5033889;28;20116;-68
2021/01/28 04:09:04;;;;;;;12.80;8.70;;;;;;;4.36;100.00;99915.41;5033634;28;20564;-67
2021/01/28 04:11:48;;;;;;;12.45;9.00;;;;;;;4.37;100.00;99917.06;5032576;28;20059;-68
2021/01/28 04:14:32;;;;;;;14.55;8.98;;;;;;;4.38;100.00;99916.13;5033817;28;20052;-68
2021/01/28 04:17:16;;;;;;;11.52;8.75;;;;;;;4.39;100.00;99904.59;5033660;28;20053;-67
2021/01/28 04:20:00;;;;;;;13.13;9.05;;;;;;;4.41;100.00;99900.03;5033469;28;20044;-67
2021/01/28 04:22:44;;;;;;;15.32;8.60;;;;;;;4.41;100.00;99895.63;5032736;28;20052;-68
2021/01/28 04:25:28;;;;;;;11.93;8.75;;;;;;;4.45;100.00;99898.88;5032737;28;20132;-68
2021/01/28 04:28:12;;;;;;;12.32;8.60;;;;;;;4.45;100.00;99898.88;5033532;28;20123;-67
2021/01/28 04:30:55;;;;;;;12.18;8.52;;;;;;;4.46;100.00;99892.66;5018623;28;20403;-67
2021/01/28 04:33:40;;;;;;;12.95;9.00;;;;;;;4.50;100.00;99894.09;5033808;28;20049;-68
2021/01/28 04:36:25;;;;;;;11.73;8.07;;;;;;;4.50;100.00;99886.16;5033543;28;20568;-67
2021/01/28 04:39:09;;;;;;;10.77;7.82;;;;;;;4.54;100.00;99877.91;5032132;28;20505;-68
2021/01/28 04:41:53;;;;;;;11.60;8.13;;;;;;;4.49;100.00;99868.66;5033931;28;20075;-68
2021/01/28 04:44:38;;;;;;;10.63;7.97;;;;;;;4.54;100.00;99861.22;5033516;28;20136;-68
2021/01/28 04:47:22;;;;;;;10.23;7.18;;;;;;;4.55;100.00;99847.03;5032187;28;20102;-67
2021/01/28 04:50:07;;;;;;;9.00;6.63;;;;;;;4.49;100.00;99835.16;5031973;28;20128;-68
2021/01/28 04:52:51;;;;;;;9.68;6.97;;;;;;;4.56;100.00;99835.56;5033013;28;20099;-68
2021/01/28 04:55:41;;;;;;;10.13;7.38;;;;;;;4.57;100.00;99830.16;5032993;28;20047;-67
2021/01/28 04:58:25;;;;;;;10.00;6.95;;;;;;;4.61;100.00;99820.19;5032374;28;20060;-67
2021/01/28 05:01:10;;;;;;;9.25;6.70;;;;;;;4.62;100.00;99817.44;5017885;28;20579;-68
2021/01/28 05:03:55;;;;;;;9.50;6.65;;;;;;;4.62;100.00;99821.88;5032955;28;20159;-67
2021/01/28 05:06:39;;;;;;;7.80;5.88;;;;;;;4.63;100.00;99807.72;5033293;28;20045;-68
2021/01/28 05:09:23;;;;;;;9.93;7.10;;;;;;;4.61;100.00;99801.72;5031566;28;20529;-68
2021/01/28 05:12:08;;;;;;;9.82;7.13;;;;;;;4.58;100.00;99791.41;5032853;28;20099;-68
2021/01/28 05:14:51;;;;;;;9.68;6.22;;;;;;;4.62;100.00;99788.41;5031826;28;20132;-68
2021/01/28 05:17:36;;;;;;;11.43;7.15;;;;;;;4.64;100.00;99777.72;5032705;28;20103;-67
2021/01/28 05:20:22;;;;;;;11.38;7.03;;;;;;;4.64;100.00;99767.16;5017558;28;20095;-68
2021/01/28 05:23:26;;;;;;;9.35;6.80;;;;;;;4.67;100.00;99765.13;5031518;28;20513;-68
2021/01/28 05:26:37;;;;;;;9.40;6.53;;;;;;;4.70;100.00;99756.94;5031529;28;20543;-67
2021/01/28 05:29:42;;;;;;;12.82;7.55;;;;;;;4.74;100.00;99757.56;5031378;28;20172;-68
2021/01/28 05:32:43;;;;;;;10.90;6.88;;;;;;;4.66;100.00;99741.50;5031454;28;20052;-68
2021/01/28 05:35:32;;;;;;;9.63;7.00;;;;;;;4.73;100.00;99740.91;5031690;28;20091;-67
2021/01/28 05:38:16;;;;;;;12.98;7.45;;;;;;;4.76;100.00;99724.81;5017798;28;20052;-67
2021/01/28 05:41:00;;;;;;;19.48;7.93;;;;;;;4.76;100.00;99719.53;5032403;28;20111;-67
2021/01/28 05:43:45;;;;;;;9.98;6.55;;;;;;;4.81;100.00;99716.53;5031595;28;20194;-67
2021/01/28 05:46:30;;;;;;;11.05;7.47;;;;;;;4.81;100.00;99712.09;5031606;28;20056;-68
2021/01/28 05:49:19;;;;;;;12.77;7.90;;;;;;;4.83;100.00;99698.75;5031412;28;20048;-67
2021/01/28 05:52:29;;;;;;;12.00;8.18;;;;;;;4.83;100.00;99693.47;5017275;28;20079;-67
2021/01/28 05:55:17;;;;;;;12.30;8.10;;;;;;;4.87;100.00;99679.06;5031207;28;20045;-67
2021/01/28 05:58:28;;;;;;;15.05;9.15;;;;;;;4.88;100.00;99680.75;5031256;28;20375;-67
2021/01/28 06:01:32;;;;;;;13.13;7.85;;;;;;;4.93;100.00;99668.00;5032376;28;20513;-67
2021/01/28 06:04:40;;;;;;;12.90;8.52;;;;;;;4.99;100.00;99655.13;5032444;28;20417;-67
2021/01/28 06:08:00;;;;;;;15.63;8.55;;;;;;;5.00;100.00;99652.38;5031340;28;20060;-67
2021/01/28 06:11:07;;;;;;;14.50;8.10;;;;;;;5.03;100.00;99664.50;5032076;28;20080;-67
2021/01/28 06:14:29;;;;;;;23.67;9.27;;;;;;;5.04;100.00;99645.88;5032293;28;20095;-67
2021/01/28 06:17:35;;;;;;;14.18;7.75;;;;;;;5.08;100.00;99636.75;5032254;28;20069;-66
2021/01/28 06:20:40;;;;;;;13.82;8.75;;;;;;;5.08;100.00;99631.47;5032146;28;20060;-67
2021/01/28 06:23:37;;;;;;;14.55;8.90;;;;;;;5.10;100.00;99621.59;5032255;28;20052;-67
2021/01/28 06:26:30;;;;;;;13.43;8.15;;;;;;;5.12;100.00;99617.03;5032206;28;20464;-67
2021/01/28 06:29:32;;;;;;;18.80;9.00;;;;;;;5.13;100.00;99618.72;5030673;28;20044;-66
2021/01/28 06:32:42;;;;;;;11.25;7.88;;;;;;;5.15;100.00;99616.78;5030878;28;20334;-67
2021/01/28 06:35:32;;;;;;;15.48;8.93;;;;;;;5.19;100.00;99607.66;5031596;28;20094;-67
2021/01/28 06:38:20;;;;;;;12.80;8.27;;;;;;;5.19;100.00;99610.28;5035694;28;20519;-67
2021/01/28 06:41:08;;;;;;;11.30;7.72;;;;;;;5.24;100.00;99604.63;5034679;28;20132;-67
2021/01/28 06:43:59;;;;;;;13.85;8.77;;;;;;;5.22;100.00;99599.47;5020527;28;20406;-67
2021/01/28 06:47:05;;;;;;;13.32;8.43;;;;;;;5.22;100.00;99596.81;5020300;28;20057;-67
2021/01/28 06:50:05;;;;;;;14.55;8.75;;;;;;;5.26;100.00;99600.03;5020360;28;20560;-66
2021/01/28 06:53:11;;;;;;;11.88;8.65;;;;;;;5.30;100.00;99596.19;5035260;28;20117;-66
2021/01/28 06:56:06;;;;;;;13.55;8.52;;;;;;;5.32;100.00;99589.81;5034128;28;20053;-67
2021/01/28 06:59:02;;;;;;;14.77;9.60;;;;;;;5.33;100.00;99588.84;5035287;28;20111;-67
2021/01/28 07:02:03;;;;;;;17.63;10.35;;;;;;;5.36;100.00;99591.22;5035604;28;20412;-67
2021/01/28 07:05:09;;;;;;;14.57;9.50;;;;;;;5.37;100.00;99579.69;5034107;28;20047;-67
2021/01/28 07:08:21;;;;;;;16.00;9.95;;;;;;;5.40;100.00;99568.88;5035103;28;20048;-66
2021/01/28 07:11:05;;;;;;;14.23;9.48;;;;;;;5.40;100.00;99568.00;5034083;28;20152;-67
2021/01/28 07:13:50;;;;;;;15.25;9.52;;;;;;;5.38;100.00;99565.53;5034926;28;20084;-66
2021/01/28 07:16:54;;;;;;;17.30;9.25;;;;;;;5.44;100.00;99554.41;5033801;28;20556;-66
2021/01/28 07:19:42;;;;;;;15.85;8.70;;;;;;;5.45;100.00;99545.50;5033713;28;20129;-66
2021/01/28 07:22:36;;;;;;;15.77;9.60;;;;;;;5.44;100.00;99541.19;5033874;28;20048;-67
2021/01/28 07:25:31;;;;;;;15.27;9.65;;;;;;;5.49;100.00;99541.66;5033629;28;20102;-66
2021/01/28 07:28:18;;;;;;;14.65;9.07;;;;;;;5.53;100.00;99535.13;5019400;28;20048;-66
2021/01/28 07:31:05;;;;;;;13.93;9.02;;;;;;;5.54;100.00;99523.59;5035981;28;20107;-64
2021/01/28 07:34:05;;;;;;;16.08;9.25;;;;;;;5.54;100.00;99528.88;5034929;28;20412;-65
2021/01/28 07:36:55;;;;;;;18.35;8.60;;;;;;;5.60;100.00;99509.00;5019604;28;20060;-64
2021/01/28 07:39:41;;;;;;;15.18;8.57;;;;;;;5.64;100.00;99502.50;5033260;28;20052;-65
2021/01/28 07:42:26;;;;;;;12.52;9.07;;;;;;;5.65;100.00;99494.41;5033709;28;20072;-65
2021/01/28 07:45:30;;;;;;;12.73;8.57;;;;;;;5.70;100.00;99483.44;5034493;28;20507;-65
2021/01/28 07:48:28;;;;;;;14.38;7.40;;;;;;;5.73;100.00;99468.16;5032161;28;20126;-65
2021/01/28 07:52:11;;;;;;;10.90;6.93;;;;;;;5.77;100.00;99466.09;5019315;28;20540;-65
2021/01/28 07:54:56;;;;;;;13.55;7.13;;;;;;;5.77;100.00;99455.50;5014306;28;20095;-65
2021/01/28 07:57:43;;;;;;;11.50;7.38;;;;;;;5.80;100.00;99449.97;5032939;28;20138;-65
2021/01/28 08:00:33;;;;;;;11.25;7.78;;;;;;;5.83;100.00;99439.16;5033825;28;20052;-65
2021/01/28 08:03:56;;;;;;;12.57;7.85;;;;;;;5.87;100.00;99438.72;5033078;28;20076;-65
2021/01/28 08:06:41;;;;;;;11.25;6.68;;;;;;;5.93;100.00;99434.72;5033275;28;20095;-65
2021/01/28 08:09:25;;;;;;;11.35;6.65;;;;;;;5.94;100.00;99426.66;5046640;28;20060;-65
2021/01/28 08:12:10;;;;;;;8.93;6.07;;;;;;;5.97;100.00;99415.78;5032964;28;20179;-64
2021/01/28 08:14:55;;;;;;;9.48;6.32;;;;;;;5.99;100.00;99408.56;5032657;28;20418;-64
2021/01/28 08:17:39;;;;;;;4.82;3.17;;;;;;;6.06;100.00;99399.09;5032647;28;20083;-64
2021/01/28 08:20:26;;;;;;;8.25;5.88;;;;;;;6.10;100.00;99399.66;5018387;28;20056;-63
2021/01/28 08:23:26;;;;;;;8.82;6.20;;;;;;;6.14;100.00;99393.97;5032712;28;20107;-64
2021/01/28 08:26:13;;;;;;;9.57;6.68;;;;;;;6.18;100.00;99387.41;5018623;28;20124;-64
2021/01/28 08:29:10;;;;;;;6.82;4.28;;;;;;;6.21;100.00;99386.31;5033317;28;20048;-65
2021/01/28 08:31:55;;;;;;;10.07;6.18;;;;;;;6.25;100.00;99375.31;5032473;28;20079;-64
2021/01/28 08:34:39;;;;;;;6.82;4.60;;;;;;;6.30;100.00;99370.44;5032470;28;20044;-64
2021/01/28 08:37:24;;;;;;;7.43;5.43;;;;;;;6.34;100.00;99350.66;5032468;28;20061;-64
2021/01/28 08:40:23;;;;;;;8.50;5.05;;;;;;;6.39;100.00;99353.72;5033031;28;20060;-64
2021/01/28 08:43:19;;;;;;;9.60;5.20;;;;;;;6.45;100.00;99347.03;5032266;28;20115;-64
2021/01/28 08:46:07;;;;;;;6.15;3.75;;;;;;;6.48;100.00;99344.91;5032156;28;20056;-63
2021/01/28 08:49:04;;;;;;;6.75;4.32;;;;;;;6.57;100.00;99324.72;5032874;28;20048;-64
2021/01/28 08:52:10;;;;;;;6.85;4.88;;;;;;;6.62;100.00;99318.03;5033219;28;20052;-63
2021/01/28 08:54:54;;;;;;;6.07;4.15;;;;;;;6.68;100.00;99308.69;5032985;28;20052;-64
2021/01/28 08:57:39;;;;;;;5.20;3.60;;;;;;;6.73;100.00;99304.63;5033226;28;20087;-63
2021/01/28 09:00:23;;;;;;;7.07;4.60;;;;;;;6.79;100.00;99301.38;5032820;28;20049;-63
2021/01/28 09:03:09;;;;;;;5.07;3.95;;;;;;;6.79;100.00;99309.31;5031900;28;20048;-63
2021/01/28 09:05:53;;;;;;;5.78;4.18;;;;;;;6.85;100.00;99303.47;5032845;28;20052;-64
2021/01/28 09:08:39;;;;;;;4.45;2.72;;;;;;;6.92;100.00;99293.97;5032820;28;20170;-63
2021/01/28 09:11:26;;;;;;;3.75;2.33;;;;;;;6.94;100.00;99307.91;5031810;28;20123;-63
2021/01/28 09:14:16;;;;;;;4.35;3.20;;;;;;;6.98;100.00;99303.97;5031692;28;20100;-64
2021/01/28 09:17:01;;;;;;;7.70;3.60;;;;;;;6.98;100.00;99293.38;5031523;28;20171;-63
2021/01/28 09:19:59;;;;;;;8.40;3.85;;;;;;;7.05;100.00;99291.81;5017701;28;20410;-64
2021/01/28 09:22:43;;;;;;;4.75;3.42;;;;;;;7.07;100.00;99292.50;5031675;28;20048;-63
2021/01/28 09:25:27;;;;;;;7.63;3.67;;;;;;;7.08;100.00;99283.56;5031759;28;20075;-63
2021/01/28 09:28:19;;;;;;;4.10;3.28;;;;;;;7.15;100.00;99305.00;5032545;28;20119;-63
2021/01/28 09:31:29;;;;;;;3.70;2.35;;;;;;;7.19;100.00;99291.31;5032269;28;20048;-63
2021/01/28 09:34:29;;;;;;;4.45;3.22;;;;;;;7.21;100.00;99299.16;5031372;28;20136;-64
2021/01/28 09:37:19;;;;;;;6.90;2.88;;;;;;;7.24;100.00;99304.16;5031435;28;20150;-63
2021/01/28 09:40:22;;;;;;;6.93;3.38;;;;;;;7.26;100.00;99289.78;5031361;28;20478;-64
2021/01/28 09:43:33;;;;;;;4.07;2.70;;;;;;;7.29;100.00;99288.66;5045530;28;20053;-64
2021/01/28 09:46:18;;;;;;;3.00;2.08;;;;;;;7.33;100.00;99293.50;5031496;28;20266;-64
2021/01/28 09:49:02;;;;;;;4.75;2.33;;;;;;;7.37;100.00;99294.88;5032123;28;20091;-64
2021/01/28 09:51:46;;;;;;;5.45;2.50;;;;;;;7.38;100.00;99291.25;5032470;28;20418;-64
2021/01/28 09:54:34;;;;;;;4.35;2.70;;;;;;;7.40;100.00;99289.25;5032209;28;20114;-64
2021/01/28 09:57:18;;;;;;;6.00;2.90;;;;;;;7.46;100.00;99299.28;5018340;28;20052;-64
2021/01/28 10:00:08;;;;;;;2.83;2.40;;;;;;;7.48;100.00;99301.81;5031097;28;20076;-65
2021/01/28 10:02:58;;;;;;;3.72;2.20;;;;;;;7.48;100.00;99297.31;5017073;28;20044;-64
2021/01/28 10:05:42;;;;;;;3.00;2.05;;;;;;;7.53;100.00;99297.72;5017458;28;20072;-65
2021/01/28 10:08:26;;;;;;;3.50;2.58;;;;;;;7.53;100.00;99285.28;5032263;28;20048;-65
2021/01/28 10:11:10;;;;;;;4.00;2.33;;;;;;;7.55;100.00;99298.41;5032965;28;20529;-65
2021/01/28 10:13:55;;;;;;;2.90;1.90;;;;;;;7.57;100.00;99284.03;5035068;28;20056;-65
2021/01/28 10:16:39;;;;;;;8.43;2.70;;;;;;;7.59;100.00;99289.16;5036083;28;20056;-65
2021/01/28 10:19:23;;;;;;;3.63;2.45;;;;;;;7.60;100.00;99285.53;5020828;28;20060;-65
2021/01/28 10:22:08;;;;;;;4.35;2.35;;;;;;;7.61;100.00;99287.19;5034676;28;20048;-64
2021/01/28 10:24:53;;;;;;;5.63;1.70;;;;;;;7.66;100.00;99291.09;5036013;28;20480;-65
2021/01/28 10:27:38;;;;;;;2.80;2.40;;;;;;;7.68;100.00;99282.97;5034869;28;20089;-65
2021/01/28 10:30:25;;;;;;;3.22;2.03;;;;;;;7.68;100.00;99293.56;5034611;28;20048;-65
2021/01/28 10:33:11;;;;;;;5.35;2.53;;;;;;;7.71;100.00;99274.69;5035534;28;20563;-65
2021/01/28 10:35:55;;;;;;;6.32;2.38;;;;;;;7.70;100.00;99259.78;5035486;28;20047;-65
2021/01/28 10:38:40;;;;;;;1.98;1.80;;;;;;;7.74;100.00;99266.47;5035664;28;20484;-64
2021/01/28 10:41:28;;;;;;;5.70;2.50;;;;;;;7.75;100.00;99262.81;5035947;28;20052;-65
2021/01/28 10:44:12;;;;;;;4.93;3.10;;;;;;;7.76;100.00;99227.34;5034785;28;20083;-64
2021/01/28 10:46:56;;;;;;;;;;;;;;;7.78;100.00;99220.06;5034978;28;20057;-65
2021/01/28 10:49:40;;;;;;;1.70;1.25;;;;;;;7.79;100.00;99201.34;5034180;28;19950;-65
2021/01/28 10:52:25;;;;;;;2.65;1.63;;;;;;;7.82;100.00;99136.56;5034317;28;20110;-65
2021/01/28 10:55:10;;;;;;;3.22;2.00;;;;;;;7.87;100.00;99160.78;5034385;28;20052;-65
2021/01/28 10:57:54;;;;;;;3.15;2.38;;;;;;;7.98;100.00;99141.97;5034145;28;20517;-66
2021/01/28 11:00:39;;;;;;;3.35;2.60;;;;;;;8.10;100.00;99146.03;5006256;28;20120;-65
2021/01/28 11:03:24;;;;;;;3.55;2.58;;;;;;;8.21;100.00;99153.75;5035247;28;20056;-65
2021/01/28 11:06:09;;;;;;;4.70;1.58;;;;;;;8.24;100.00;99143.66;5035099;28;20056;-65
2021/01/28 11:08:53;;;;;;;2.95;2.13;;;;;;;8.31;100.00;99138.56;5047947;28;20052;-65
2021/01/28 11:11:38;;;;;;;3.88;2.20;;;;;;;8.34;100.00;99144.38;5034327;28;20056;-65
2021/01/28 11:14:23;;;;;;;5.28;2.55;;;;;;;8.39;100.00;99143.91;5048073;28;20048;-65
2021/01/28 11:17:07;;;;;;;2.83;1.95;;;;;;;8.39;100.00;99157.19;5033896;28;20103;-64
2021/01/28 11:19:51;;;;;;;4.25;2.45;;;;;;;8.42;100.00;99157.72;5019581;28;20053;-65
2021/01/28 11:22:35;;;;;;;4.47;2.50;;;;;;;8.47;100.00;99157.25;5034472;28;20084;-65
2021/01/28 11:25:23;;;;;;;3.35;2.03;;;;;;;8.49;100.00;99148.13;5019634;28;20102;-65
2021/01/28 11:28:07;;;;;;;1.52;1.20;;;;;;;8.51;100.00;99155.94;5034678;28;20045;-65
2021/01/28 11:30:51;;;;;;;1.70;1.45;;;;;;;8.52;100.00;99147.81;5034321;28;20390;-65
2021/01/28 11:33:35;;;;;;;2.15;1.80;;;;;;;8.56;100.00;99158.97;5033447;28;20052;-65
2021/01/28 11:36:19;;;;;;;2.13;1.13;;;;;;;8.56;100.00;99154.47;5019354;28;20060;-65
2021/01/28 11:39:03;;;;;;;3.42;2.38;;;;;;;8.59;100.00;99153.31;5033351;28;20099;-65
2021/01/28 11:41:47;;;;;;;2.53;1.95;;;;;;;8.61;100.00;99138.06;5033606;28;20548;-65
2021/01/28 11:44:31;;;;;;;2.03;1.33;;;;;;;8.65;100.00;99142.06;5034610;28;20076;-65
2021/01/28 11:47:15;;;;;;;3.38;2.15;;;;;;;8.68;100.00;99125.81;5033471;28;20138;-65
2021/01/28 11:49:59;;;;;;;3.05;1.98;;;;;;;8.72;100.00;99124.47;5034145;28;20056;-65
2021/01/28 11:52:44;;;;;;;1.52;1.13;;;;;;;8.73;100.00;99144.75;5034420;28;20044;-65
2021/01/28 11:55:29;;;;;;;1.42;1.13;;;;;;;8.74;100.00;99135.78;5033220;28;20052;-64
2021/01/28 11:58:14;;;;;;;1.58;1.40;;;;;;;8.76;100.00;99112.56;5034249;28;20111;-65
2021/01/28 12:00:58;;;;;;;4.10;1.98;;;;;;;8.76;100.00;99112.56;5033861;28;20110;-65
2021/01/28 12:03:43;;;;;;;2.85;1.92;;;;;;;8.78;100.00;99122.00;5033930;28;20059;-66
2021/01/28 12:06:29;;;;;;;2.22;1.65;;;;;;;8.81;100.00;99110.25;5033953;28;20057;-65
2021/01/28 12:09:13;;;;;;;1.98;1.58;;;;;;;8.82;100.00;99111.91;5032792;28;20052;-65
2021/01/28 12:11:57;;;;;;;2.58;1.85;;;;;;;8.84;100.00;99115.22;5033827;28;20090;-66
2021/01/28 12:14:42;;;;;;;2.65;1.67;;;;;;;8.88;100.00;99098.81;5033736;28;20055;-65
2021/01/28 12:17:26;;;;;;;2.97;1.50;;;;;;;8.93;100.00;99103.63;5018687;28;20096;-66
2021/01/28 12:20:10;;;;;;;2.92;2.50;;;;;;;8.97;100.00;99089.03;5032699;28;20103;-65
2021/01/28 12:22:54;;;;;;;2.35;1.80;;;;;;;9.00;100.00;99086.06;5033791;28;20047;-65
2021/01/28 12:25:38;;;;;;;2.97;2.03;;;;;;;9.05;100.00;99094.38;5033771;28;20048;-64
2021/01/28 12:28:24;;;;;;;1.55;1.45;;;;;;;9.10;100.00;99086.75;5033515;28;20084;-66
2021/01/28 12:31:08;;;;;;;3.40;2.22;;;;;;;9.15;100.00;99071.97;5032189;28;20075;-66
2021/01/28 12:33:53;;;;;;;3.80;2.42;;;;;;;9.20;100.00;99090.94;5032764;28;20066;-66
2021/01/28 12:36:37;;;;;;;2.88;2.40;;;;;;;9.26;100.00;99090.25;5033595;28;20052;-65
2021/01/28 12:39:21;;;;;;;2.85;2.10;;;;;;;9.32;100.00;99073.66;5033362;28;20048;-65
2021/01/28 12:42:05;;;;;;;3.20;2.20;;;;;;;9.36;100.00;99068.84;5032277;28;20473;-66
2021/01/28 12:44:50;;;;;;;4.97;2.30;;;;;;;9.47;100.00;99076.50;5033684;28;20052;-65
2021/01/28 12:47:34;;;;;;;3.65;2.80;;;;;;;9.50;100.00;99068.16;5032059;28;20060;-65
2021/01/28 12:50:18;;;;;;;6.55;2.33;;;;;;;9.53;100.00;99087.28;5018012;28;20079;-65
2021/01/28 12:53:02;;;;;;;4.25;1.83;;;;;;;9.56;100.00;99070.19;5032215;28;20048;-65
2021/01/28 12:55:47;;;;;;;2.83;2.20;;;;;;;9.59;100.00;99085.78;5033147;28;20057;-65
2021/01/28 12:58:30;;;;;;;2.70;2.03;;;;;;;9.61;100.00;99075.81;5033252;28;20071;-65
2021/01/28 13:01:15;;;;;;;3.65;2.38;;;;;;;9.65;100.00;99071.81;5033013;28;20044;-65
2021/01/28 13:03:59;;;;;;;3.67;2.70;;;;;;;9.69;100.00;99068.66;5033049;28;20429;-65